Main page
METAR-TAF:

METAR-TAF

Airports :

Gran Canaria, Spain

Gran Canaria Airport

latitude: 27-56N, longitude: 015-23W, elevation: 23 m

Current weather observation

The report was made 31 minutes ago, at 22:30 UTC
Wind 20 kt from the North
Temperature 25°C
Humidity 65%
Pressure 1012 hPa
Visibility 10 km or more
no clouds below 1500 m and no cumulonimbus

METAR: GCLP 232230Z 36020KT CAVOK 25/18 Q1012 NOSIG

Time: 00:01 (23:01 UTC)

Forecast

The report was made 3 hours and 1 minutes ago, at 20:00 UTC
Forecast valid from 23 at 21 UTC to 24 at 21 UTC
Wind 21 kt from the North/Northeast
Visibility: 9000 m
Few clouds at a height of 2500 ft
Temporary
from 23 at 21 UTC to 24 at 09 UTC
Wind 23 kt from the North/Northeast with gusts up to 33 kt

TAF: GCLP 232000Z 2321/2421 02021KT 9000 FEW025 TX30/2413Z TN26/2406Z TEMPO 2321/2409 02023G33KT

Weather observations and forecasts of more than 4000 airports (METAR and TAF reports).

The available stations are represented by yellow and red dots on the map.

Hover mouse over dot to see the name of the station.

Then click to see weather observations and forecasts.

To change the map : click on the green buttons with a black cross to zoom in, on the green button with a dash to zoom out, or on the green arrows for adjacent maps.


METAR-TAF: